sensor_id;sensor_type;location;lat;lon;timestamp;P1;durP1;ratioP1;P2;durP2;ratioP2
73650;SDS011;61944;52.538;6.108;2023-10-13T00:01:18;31.33;;;17.17;;
73650;SDS011;61944;52.538;6.108;2023-10-13T00:03:43;26.70;;;14.50;;
73650;SDS011;61944;52.538;6.108;2023-10-13T00:06:08;38.13;;;18.92;;
73650;SDS011;61944;52.538;6.108;2023-10-13T00:08:35;34.33;;;17.77;;
73650;SDS011;61944;52.538;6.108;2023-10-13T00:11:01;39.42;;;17.48;;
73650;SDS011;61944;52.538;6.108;2023-10-13T00:13:28;36.47;;;16.70;;
73650;SDS011;61944;52.538;6.108;2023-10-13T00:15:55;32.35;;;15.35;;
73650;SDS011;61944;52.538;6.108;2023-10-13T00:18:28;29.90;;;15.93;;
73650;SDS011;61944;52.538;6.108;2023-10-13T00:21:07;32.83;;;15.70;;
73650;SDS011;61944;52.538;6.108;2023-10-13T00:23:41;33.95;;;16.20;;
73650;SDS011;61944;52.538;6.108;2023-10-13T00:26:20;31.42;;;16.92;;
73650;SDS011;61944;52.538;6.108;2023-10-13T00:28:52;36.25;;;17.10;;
73650;SDS011;61944;52.538;6.108;2023-10-13T00:31:24;40.60;;;19.73;;
73650;SDS011;61944;52.538;6.108;2023-10-13T00:34:01;40.88;;;19.38;;
73650;SDS011;61944;52.538;6.108;2023-10-13T00:36:50;34.42;;;16.17;;
73650;SDS011;61944;52.538;6.108;2023-10-13T00:39:33;39.38;;;17.02;;
73650;SDS011;61944;52.538;6.108;2023-10-13T00:42:01;34.35;;;18.02;;
73650;SDS011;61944;52.538;6.108;2023-10-13T00:44:33;34.65;;;17.67;;
73650;SDS011;61944;52.538;6.108;2023-10-13T00:47:09;32.92;;;18.45;;
73650;SDS011;61944;52.538;6.108;2023-10-13T00:49:41;29.23;;;16.88;;
73650;SDS011;61944;52.538;6.108;2023-10-13T00:52:08;30.95;;;17.30;;
73650;SDS011;61944;52.538;6.108;2023-10-13T00:54:36;38.13;;;17.48;;
73650;SDS011;61944;52.538;6.108;2023-10-13T00:57:02;36.65;;;16.20;;
73650;SDS011;61944;52.538;6.108;2023-10-13T00:59:51;31.98;;;15.25;;
73650;SDS011;61944;52.538;6.108;2023-10-13T01:02:43;35.38;;;16.50;;
73650;SDS011;61944;52.538;6.108;2023-10-13T01:05:10;29.95;;;16.25;;
73650;SDS011;61944;52.538;6.108;2023-10-13T01:07:36;27.60;;;14.27;;
73650;SDS011;61944;52.538;6.108;2023-10-13T01:10:02;29.85;;;15.57;;
73650;SDS011;61944;52.538;6.108;2023-10-13T01:12:38;26.05;;;14.63;;
73650;SDS011;61944;52.538;6.108;2023-10-13T01:15:03;29.83;;;14.85;;
73650;SDS011;61944;52.538;6.108;2023-10-13T01:17:33;30.27;;;14.98;;
73650;SDS011;61944;52.538;6.108;2023-10-13T01:19:59;34.28;;;14.93;;
73650;SDS011;61944;52.538;6.108;2023-10-13T01:22:24;29.33;;;14.95;;
73650;SDS011;61944;52.538;6.108;2023-10-13T01:24:52;33.58;;;15.88;;
73650;SDS011;61944;52.538;6.108;2023-10-13T01:27:29;32.70;;;15.48;;
73650;SDS011;61944;52.538;6.108;2023-10-13T01:29:54;32.40;;;16.60;;
73650;SDS011;61944;52.538;6.108;2023-10-13T01:32:34;26.45;;;14.77;;
73650;SDS011;61944;52.538;6.108;2023-10-13T01:35:05;26.80;;;15.30;;
73650;SDS011;61944;52.538;6.108;2023-10-13T01:37:32;31.48;;;15.32;;
73650;SDS011;61944;52.538;6.108;2023-10-13T01:39:57;32.08;;;16.58;;
73650;SDS011;61944;52.538;6.108;2023-10-13T01:42:22;25.27;;;13.77;;
73650;SDS011;61944;52.538;6.108;2023-10-13T01:44:49;32.65;;;14.85;;
73650;SDS011;61944;52.538;6.108;2023-10-13T01:47:15;29.02;;;15.60;;
73650;SDS011;61944;52.538;6.108;2023-10-13T01:49:41;30.08;;;14.38;;
73650;SDS011;61944;52.538;6.108;2023-10-13T01:52:11;26.88;;;13.90;;
73650;SDS011;61944;52.538;6.108;2023-10-13T01:54:37;26.85;;;14.43;;
73650;SDS011;61944;52.538;6.108;2023-10-13T01:57:06;25.90;;;14.15;;
73650;SDS011;61944;52.538;6.108;2023-10-13T01:59:32;29.50;;;13.43;;
73650;SDS011;61944;52.538;6.108;2023-10-13T02:01:58;31.77;;;15.07;;
73650;SDS011;61944;52.538;6.108;2023-10-13T02:04:26;27.20;;;13.80;;
73650;SDS011;61944;52.538;6.108;2023-10-13T02:06:52;24.00;;;12.50;;
73650;SDS011;61944;52.538;6.108;2023-10-13T02:09:17;26.35;;;14.25;;
73650;SDS011;61944;52.538;6.108;2023-10-13T02:11:51;27.83;;;13.05;;
73650;SDS011;61944;52.538;6.108;2023-10-13T02:14:22;27.23;;;13.27;;
73650;SDS011;61944;52.538;6.108;2023-10-13T02:16:50;22.58;;;12.55;;
73650;SDS011;61944;52.538;6.108;2023-10-13T02:19:37;23.42;;;12.40;;
73650;SDS011;61944;52.538;6.108;2023-10-13T02:22:05;24.40;;;11.55;;
73650;SDS011;61944;52.538;6.108;2023-10-13T02:24:33;24.17;;;11.40;;
73650;SDS011;61944;52.538;6.108;2023-10-13T02:26:59;23.05;;;12.02;;
73650;SDS011;61944;52.538;6.108;2023-10-13T02:29:38;28.10;;;11.82;;
73650;SDS011;61944;52.538;6.108;2023-10-13T02:32:04;23.08;;;12.90;;
73650;SDS011;61944;52.538;6.108;2023-10-13T02:34:37;26.35;;;11.85;;
73650;SDS011;61944;52.538;6.108;2023-10-13T02:37:08;25.42;;;12.00;;
73650;SDS011;61944;52.538;6.108;2023-10-13T02:39:34;24.15;;;12.52;;
73650;SDS011;61944;52.538;6.108;2023-10-13T02:42:01;26.55;;;11.50;;
73650;SDS011;61944;52.538;6.108;2023-10-13T02:44:26;26.35;;;12.73;;
73650;SDS011;61944;52.538;6.108;2023-10-13T02:46:55;26.67;;;12.82;;
73650;SDS011;61944;52.538;6.108;2023-10-13T02:49:24;21.27;;;12.23;;
73650;SDS011;61944;52.538;6.108;2023-10-13T02:51:51;28.27;;;13.40;;
73650;SDS011;61944;52.538;6.108;2023-10-13T02:54:18;24.55;;;13.18;;
73650;SDS011;61944;52.538;6.108;2023-10-13T02:56:44;25.58;;;13.60;;
73650;SDS011;61944;52.538;6.108;2023-10-13T02:59:28;33.47;;;14.10;;
73650;SDS011;61944;52.538;6.108;2023-10-13T03:02:04;23.63;;;12.15;;
73650;SDS011;61944;52.538;6.108;2023-10-13T03:04:43;27.40;;;13.63;;
73650;SDS011;61944;52.538;6.108;2023-10-13T03:07:10;24.67;;;13.75;;
73650;SDS011;61944;52.538;6.108;2023-10-13T03:09:35;25.17;;;14.20;;
73650;SDS011;61944;52.538;6.108;2023-10-13T03:12:02;30.95;;;13.70;;
73650;SDS011;61944;52.538;6.108;2023-10-13T03:14:29;28.33;;;13.30;;
73650;SDS011;61944;52.538;6.108;2023-10-13T03:17:01;27.15;;;13.52;;
73650;SDS011;61944;52.538;6.108;2023-10-13T03:19:30;24.67;;;13.40;;
73650;SDS011;61944;52.538;6.108;2023-10-13T03:21:59;29.95;;;14.70;;
73650;SDS011;61944;52.538;6.108;2023-10-13T03:24:34;21.42;;;12.32;;
73650;SDS011;61944;52.538;6.108;2023-10-13T03:27:01;23.92;;;13.63;;
73650;SDS011;61944;52.538;6.108;2023-10-13T05:08:11;21.80;;;12.40;;
73650;SDS011;61944;52.538;6.108;2023-10-13T05:11:03;17.55;;;11.02;;
73650;SDS011;61944;52.538;6.108;2023-10-13T05:13:48;17.95;;;11.38;;
73650;SDS011;61944;52.538;6.108;2023-10-13T05:16:32;17.58;;;9.98;;
73650;SDS011;61944;52.538;6.108;2023-10-13T05:19:16;15.60;;;9.55;;
73650;SDS011;61944;52.538;6.108;2023-10-13T05:22:00;19.73;;;10.38;;
73650;SDS011;61944;52.538;6.108;2023-10-13T05:24:44;15.98;;;9.07;;
73650;SDS011;61944;52.538;6.108;2023-10-13T05:27:28;15.95;;;9.15;;
73650;SDS011;61944;52.538;6.108;2023-10-13T05:30:12;16.45;;;9.77;;
73650;SDS011;61944;52.538;6.108;2023-10-13T05:32:56;16.05;;;10.05;;
73650;SDS011;61944;52.538;6.108;2023-10-13T05:35:40;15.70;;;9.40;;
73650;SDS011;61944;52.538;6.108;2023-10-13T05:38:24;16.40;;;8.88;;
73650;SDS011;61944;52.538;6.108;2023-10-13T05:41:08;12.60;;;8.02;;
73650;SDS011;61944;52.538;6.108;2023-10-13T05:43:52;13.63;;;8.25;;
73650;SDS011;61944;52.538;6.108;2023-10-13T05:46:36;13.60;;;7.85;;
73650;SDS011;61944;52.538;6.108;2023-10-13T05:49:05;11.32;;;6.30;;
73650;SDS011;61944;52.538;6.108;2023-10-13T05:51:41;13.02;;;7.57;;
73650;SDS011;61944;52.538;6.108;2023-10-13T05:54:09;11.13;;;6.80;;
73650;SDS011;61944;52.538;6.108;2023-10-13T05:56:39;12.40;;;6.63;;
73650;SDS011;61944;52.538;6.108;2023-10-13T05:59:26;8.40;;;6.00;;
73650;SDS011;61944;52.538;6.108;2023-10-13T06:02:12;13.70;;;6.80;;
73650;SDS011;61944;52.538;6.108;2023-10-13T06:05:00;10.57;;;6.35;;
73650;SDS011;61944;52.538;6.108;2023-10-13T06:07:45;11.55;;;6.45;;
73650;SDS011;61944;52.538;6.108;2023-10-13T06:10:29;13.18;;;6.68;;
73650;SDS011;61944;52.538;6.108;2023-10-13T06:13:13;11.63;;;5.15;;
73650;SDS011;61944;52.538;6.108;2023-10-13T06:15:57;16.25;;;5.03;;
73650;SDS011;61944;52.538;6.108;2023-10-13T06:18:41;7.80;;;4.78;;
73650;SDS011;61944;52.538;6.108;2023-10-13T06:21:25;6.15;;;3.90;;
73650;SDS011;61944;52.538;6.108;2023-10-13T06:24:09;7.38;;;4.30;;
73650;SDS011;61944;52.538;6.108;2023-10-13T06:26:53;8.13;;;4.43;;
73650;SDS011;61944;52.538;6.108;2023-10-13T06:29:40;13.25;;;4.95;;
73650;SDS011;61944;52.538;6.108;2023-10-13T06:32:06;6.15;;;4.07;;
73650;SDS011;61944;52.538;6.108;2023-10-13T06:34:38;6.40;;;4.57;;
73650;SDS011;61944;52.538;6.108;2023-10-13T06:37:07;12.00;;;4.72;;
73650;SDS011;61944;52.538;6.108;2023-10-13T06:39:55;10.63;;;5.00;;
73650;SDS011;61944;52.538;6.108;2023-10-13T06:42:24;9.80;;;4.35;;
73650;SDS011;61944;52.538;6.108;2023-10-13T06:44:55;10.18;;;6.45;;
73650;SDS011;61944;52.538;6.108;2023-10-13T06:47:24;11.40;;;5.93;;
73650;SDS011;61944;52.538;6.108;2023-10-13T06:49:50;14.77;;;5.60;;
73650;SDS011;61944;52.538;6.108;2023-10-13T06:52:21;10.10;;;5.23;;
73650;SDS011;61944;52.538;6.108;2023-10-13T06:54:50;9.38;;;5.57;;
73650;SDS011;61944;52.538;6.108;2023-10-13T06:57:16;12.55;;;5.60;;
73650;SDS011;61944;52.538;6.108;2023-10-13T06:59:48;13.00;;;6.00;;
73650;SDS011;61944;52.538;6.108;2023-10-13T07:02:14;9.00;;;4.80;;
73650;SDS011;61944;52.538;6.108;2023-10-13T07:04:48;13.70;;;5.72;;
73650;SDS011;61944;52.538;6.108;2023-10-13T07:07:21;17.65;;;6.70;;
73650;SDS011;61944;52.538;6.108;2023-10-13T07:09:48;15.75;;;6.78;;
73650;SDS011;61944;52.538;6.108;2023-10-13T07:12:20;8.90;;;5.63;;
73650;SDS011;61944;52.538;6.108;2023-10-13T07:14:51;13.75;;;5.82;;
73650;SDS011;61944;52.538;6.108;2023-10-13T07:17:17;10.68;;;4.88;;
73650;SDS011;61944;52.538;6.108;2023-10-13T07:19:50;12.55;;;5.40;;
73650;SDS011;61944;52.538;6.108;2023-10-13T07:22:24;11.50;;;5.07;;
73650;SDS011;61944;52.538;6.108;2023-10-13T07:24:52;14.55;;;5.53;;
73650;SDS011;61944;52.538;6.108;2023-10-13T07:27:21;16.58;;;6.20;;
73650;SDS011;61944;52.538;6.108;2023-10-13T07:29:57;12.30;;;7.10;;
73650;SDS011;61944;52.538;6.108;2023-10-13T07:32:39;12.77;;;5.60;;
73650;SDS011;61944;52.538;6.108;2023-10-13T07:35:14;12.18;;;5.97;;
73650;SDS011;61944;52.538;6.108;2023-10-13T07:37:42;12.85;;;5.57;;
73650;SDS011;61944;52.538;6.108;2023-10-13T07:40:09;12.55;;;5.28;;
73650;SDS011;61944;52.538;6.108;2023-10-13T07:42:54;15.32;;;5.97;;
73650;SDS011;61944;52.538;6.108;2023-10-13T07:45:35;7.80;;;5.30;;
73650;SDS011;61944;52.538;6.108;2023-10-13T07:48:05;13.65;;;5.60;;
73650;SDS011;61944;52.538;6.108;2023-10-13T07:50:38;12.25;;;5.20;;
73650;SDS011;61944;52.538;6.108;2023-10-13T07:53:06;15.30;;;6.72;;
73650;SDS011;61944;52.538;6.108;2023-10-13T07:55:45;14.38;;;6.45;;
73650;SDS011;61944;52.538;6.108;2023-10-13T07:58:20;11.82;;;6.63;;
73650;SDS011;61944;52.538;6.108;2023-10-13T08:00:45;14.00;;;6.22;;
73650;SDS011;61944;52.538;6.108;2023-10-13T08:03:11;17.23;;;7.60;;
73650;SDS011;61944;52.538;6.108;2023-10-13T08:05:40;16.50;;;6.38;;
73650;SDS011;61944;52.538;6.108;2023-10-13T08:08:36;12.00;;;6.43;;
73650;SDS011;61944;52.538;6.108;2023-10-13T08:11:11;17.48;;;7.07;;
73650;SDS011;61944;52.538;6.108;2023-10-13T08:16:20;13.98;;;6.45;;
73650;SDS011;61944;52.538;6.108;2023-10-13T08:18:49;18.58;;;8.02;;
73650;SDS011;61944;52.538;6.108;2023-10-13T08:21:18;18.45;;;8.13;;
73650;SDS011;61944;52.538;6.108;2023-10-13T08:26:22;16.27;;;8.00;;
73650;SDS011;61944;52.538;6.108;2023-10-13T08:29:00;11.45;;;7.60;;
73650;SDS011;61944;52.538;6.108;2023-10-13T08:31:46;15.20;;;7.90;;
73650;SDS011;61944;52.538;6.108;2023-10-13T08:34:30;13.18;;;7.72;;
73650;SDS011;61944;52.538;6.108;2023-10-13T08:37:04;14.18;;;6.78;;
73650;SDS011;61944;52.538;6.108;2023-10-13T08:39:48;14.30;;;7.63;;
73650;SDS011;61944;52.538;6.108;2023-10-13T08:45:15;11.40;;;6.87;;
73650;SDS011;61944;52.538;6.108;2023-10-13T08:47:51;14.00;;;7.18;;
73650;SDS011;61944;52.538;6.108;2023-10-13T08:50:37;18.00;;;7.78;;
73650;SDS011;61944;52.538;6.108;2023-10-13T08:53:23;11.10;;;6.72;;
73650;SDS011;61944;52.538;6.108;2023-10-13T08:55:53;14.05;;;7.03;;
73650;SDS011;61944;52.538;6.108;2023-10-13T08:58:40;16.23;;;7.43;;
73650;SDS011;61944;52.538;6.108;2023-10-13T09:01:19;10.90;;;7.13;;
73650;SDS011;61944;52.538;6.108;2023-10-13T09:04:00;14.25;;;6.10;;
73650;SDS011;61944;52.538;6.108;2023-10-13T09:06:52;15.27;;;6.45;;
73650;SDS011;61944;52.538;6.108;2023-10-13T09:12:01;15.23;;;7.22;;
73650;SDS011;61944;52.538;6.108;2023-10-13T09:14:37;18.15;;;7.05;;
73650;SDS011;61944;52.538;6.108;2023-10-13T09:17:07;15.18;;;6.07;;
73650;SDS011;61944;52.538;6.108;2023-10-13T09:19:53;10.23;;;6.10;;
73650;SDS011;61944;52.538;6.108;2023-10-13T09:22:22;8.38;;;5.68;;
73650;SDS011;61944;52.538;6.108;2023-10-13T09:25:03;16.13;;;6.38;;
73650;SDS011;61944;52.538;6.108;2023-10-13T09:27:38;12.93;;;6.45;;
73650;SDS011;61944;52.538;6.108;2023-10-13T09:30:05;20.90;;;7.47;;
73650;SDS011;61944;52.538;6.108;2023-10-13T09:32:46;10.40;;;6.97;;
73650;SDS011;61944;52.538;6.108;2023-10-13T09:35:17;14.77;;;7.05;;
73650;SDS011;61944;52.538;6.108;2023-10-13T09:37:45;13.57;;;6.80;;
73650;SDS011;61944;52.538;6.108;2023-10-13T09:40:16;13.43;;;6.85;;
73650;SDS011;61944;52.538;6.108;2023-10-13T09:42:57;14.80;;;6.10;;
73650;SDS011;61944;52.538;6.108;2023-10-13T09:45:28;17.63;;;6.78;;
73650;SDS011;61944;52.538;6.108;2023-10-13T09:47:58;22.98;;;7.18;;
73650;SDS011;61944;52.538;6.108;2023-10-13T09:50:41;18.15;;;6.97;;
73650;SDS011;61944;52.538;6.108;2023-10-13T09:53:09;8.15;;;5.38;;
73650;SDS011;61944;52.538;6.108;2023-10-13T09:55:40;14.70;;;6.90;;
73650;SDS011;61944;52.538;6.108;2023-10-13T09:58:11;17.25;;;6.40;;
73650;SDS011;61944;52.538;6.108;2023-10-13T10:00:47;15.65;;;6.57;;
73650;SDS011;61944;52.538;6.108;2023-10-13T10:03:44;17.70;;;6.53;;
73650;SDS011;61944;52.538;6.108;2023-10-13T10:06:20;15.45;;;5.85;;
73650;SDS011;61944;52.538;6.108;2023-10-13T10:08:53;9.75;;;6.38;;
73650;SDS011;61944;52.538;6.108;2023-10-13T10:11:52;16.77;;;6.60;;
73650;SDS011;61944;52.538;6.108;2023-10-13T10:17:26;21.42;;;7.57;;
73650;SDS011;61944;52.538;6.108;2023-10-13T10:19:54;13.75;;;5.70;;
73650;SDS011;61944;52.538;6.108;2023-10-13T10:22:28;19.05;;;6.18;;
73650;SDS011;61944;52.538;6.108;2023-10-13T10:25:09;13.48;;;6.07;;
73650;SDS011;61944;52.538;6.108;2023-10-13T10:27:55;16.13;;;7.43;;
73650;SDS011;61944;52.538;6.108;2023-10-13T10:30:28;13.40;;;5.18;;
73650;SDS011;61944;52.538;6.108;2023-10-13T10:32:57;11.15;;;6.72;;
73650;SDS011;61944;52.538;6.108;2023-10-13T10:35:31;16.45;;;6.20;;
73650;SDS011;61944;52.538;6.108;2023-10-13T10:40:51;11.80;;;6.10;;
73650;SDS011;61944;52.538;6.108;2023-10-13T10:43:29;13.50;;;6.50;;
73650;SDS011;61944;52.538;6.108;2023-10-13T10:46:14;13.27;;;6.28;;
73650;SDS011;61944;52.538;6.108;2023-10-13T10:48:44;13.05;;;6.32;;
73650;SDS011;61944;52.538;6.108;2023-10-13T10:51:10;13.73;;;5.32;;
73650;SDS011;61944;52.538;6.108;2023-10-13T10:53:46;11.10;;;5.65;;
73650;SDS011;61944;52.538;6.108;2023-10-13T10:56:17;15.75;;;7.28;;
73650;SDS011;61944;52.538;6.108;2023-10-13T10:58:54;11.25;;;7.40;;
73650;SDS011;61944;52.538;6.108;2023-10-13T11:01:22;11.68;;;5.90;;
73650;SDS011;61944;52.538;6.108;2023-10-13T11:03:58;17.55;;;5.95;;
73650;SDS011;61944;52.538;6.108;2023-10-13T11:06:47;10.43;;;5.40;;
73650;SDS011;61944;52.538;6.108;2023-10-13T11:09:23;11.93;;;6.18;;
73650;SDS011;61944;52.538;6.108;2023-10-13T11:11:56;24.42;;;7.88;;
73650;SDS011;61944;52.538;6.108;2023-10-13T11:14:44;12.57;;;6.47;;
73650;SDS011;61944;52.538;6.108;2023-10-13T11:17:22;15.38;;;6.25;;
73650;SDS011;61944;52.538;6.108;2023-10-13T11:20:07;17.35;;;7.18;;
73650;SDS011;61944;52.538;6.108;2023-10-13T11:22:41;12.13;;;6.85;;
73650;SDS011;61944;52.538;6.108;2023-10-13T11:25:19;11.27;;;5.47;;
73650;SDS011;61944;52.538;6.108;2023-10-13T11:28:12;14.43;;;6.35;;
73650;SDS011;61944;52.538;6.108;2023-10-13T11:31:07;15.30;;;6.33;;
73650;SDS011;61944;52.538;6.108;2023-10-13T11:33:44;14.18;;;7.10;;
73650;SDS011;61944;52.538;6.108;2023-10-13T11:36:11;11.95;;;5.72;;
73650;SDS011;61944;52.538;6.108;2023-10-13T11:38:47;11.07;;;6.03;;
73650;SDS011;61944;52.538;6.108;2023-10-13T11:41:13;17.48;;;5.75;;
73650;SDS011;61944;52.538;6.108;2023-10-13T11:43:46;14.20;;;6.95;;
73650;SDS011;61944;52.538;6.108;2023-10-13T11:46:17;12.82;;;6.32;;
73650;SDS011;61944;52.538;6.108;2023-10-13T11:49:05;16.98;;;6.28;;
73650;SDS011;61944;52.538;6.108;2023-10-13T11:51:42;13.07;;;7.15;;
73650;SDS011;61944;52.538;6.108;2023-10-13T11:54:14;16.13;;;6.55;;
73650;SDS011;61944;52.538;6.108;2023-10-13T11:56:40;17.17;;;6.28;;
73650;SDS011;61944;52.538;6.108;2023-10-13T11:59:06;12.57;;;6.03;;
73650;SDS011;61944;52.538;6.108;2023-10-13T12:01:40;10.90;;;6.75;;
73650;SDS011;61944;52.538;6.108;2023-10-13T12:04:25;12.18;;;6.32;;
73650;SDS011;61944;52.538;6.108;2023-10-13T12:07:05;14.13;;;6.95;;
73650;SDS011;61944;52.538;6.108;2023-10-13T12:09:53;22.20;;;6.05;;
73650;SDS011;61944;52.538;6.108;2023-10-13T12:12:25;14.77;;;5.63;;
73650;SDS011;61944;52.538;6.108;2023-10-13T12:14:51;17.92;;;7.72;;
73650;SDS011;61944;52.538;6.108;2023-10-13T12:17:19;14.30;;;6.30;;
73650;SDS011;61944;52.538;6.108;2023-10-13T12:19:55;15.90;;;5.70;;
73650;SDS011;61944;52.538;6.108;2023-10-13T12:22:22;12.05;;;6.32;;
73650;SDS011;61944;52.538;6.108;2023-10-13T12:24:53;15.55;;;6.28;;
73650;SDS011;61944;52.538;6.108;2023-10-13T12:27:21;18.10;;;6.55;;
73650;SDS011;61944;52.538;6.108;2023-10-13T12:30:07;15.45;;;6.38;;
73650;SDS011;61944;52.538;6.108;2023-10-13T12:32:38;16.63;;;7.10;;
73650;SDS011;61944;52.538;6.108;2023-10-13T12:35:09;15.13;;;6.43;;
73650;SDS011;61944;52.538;6.108;2023-10-13T12:37:35;14.68;;;6.32;;
73650;SDS011;61944;52.538;6.108;2023-10-13T12:40:06;12.15;;;6.10;;
73650;SDS011;61944;52.538;6.108;2023-10-13T12:43:11;17.35;;;6.82;;
73650;SDS011;61944;52.538;6.108;2023-10-13T12:45:54;19.05;;;5.50;;
73650;SDS011;61944;52.538;6.108;2023-10-13T12:48:38;10.98;;;6.25;;
73650;SDS011;61944;52.538;6.108;2023-10-13T12:51:22;18.33;;;5.88;;
73650;SDS011;61944;52.538;6.108;2023-10-13T12:53:54;12.02;;;6.25;;
73650;SDS011;61944;52.538;6.108;2023-10-13T12:56:29;12.00;;;6.03;;
73650;SDS011;61944;52.538;6.108;2023-10-13T12:58:54;16.75;;;7.15;;
73650;SDS011;61944;52.538;6.108;2023-10-13T13:01:20;15.48;;;6.85;;
73650;SDS011;61944;52.538;6.108;2023-10-13T13:03:47;15.73;;;6.60;;
73650;SDS011;61944;52.538;6.108;2023-10-13T13:06:19;16.83;;;6.30;;
73650;SDS011;61944;52.538;6.108;2023-10-13T13:08:56;15.77;;;6.38;;
73650;SDS011;61944;52.538;6.108;2023-10-13T13:11:23;17.65;;;7.60;;
73650;SDS011;61944;52.538;6.108;2023-10-13T13:13:49;12.00;;;7.32;;
73650;SDS011;61944;52.538;6.108;2023-10-13T13:16:15;13.00;;;6.43;;
73650;SDS011;61944;52.538;6.108;2023-10-13T13:18:48;19.23;;;6.18;;
73650;SDS011;61944;52.538;6.108;2023-10-13T13:21:19;14.68;;;6.65;;
73650;SDS011;61944;52.538;6.108;2023-10-13T13:23:48;13.88;;;6.03;;
73650;SDS011;61944;52.538;6.108;2023-10-13T13:26:16;11.77;;;6.00;;
73650;SDS011;61944;52.538;6.108;2023-10-13T13:28:43;18.05;;;8.80;;
73650;SDS011;61944;52.538;6.108;2023-10-13T13:31:16;17.05;;;7.22;;
73650;SDS011;61944;52.538;6.108;2023-10-13T13:33:42;14.77;;;6.53;;
73650;SDS011;61944;52.538;6.108;2023-10-13T13:36:09;18.58;;;6.90;;
73650;SDS011;61944;52.538;6.108;2023-10-13T13:38:40;13.75;;;6.82;;
73650;SDS011;61944;52.538;6.108;2023-10-13T13:41:05;16.52;;;7.28;;
73650;SDS011;61944;52.538;6.108;2023-10-13T13:43:40;16.92;;;9.18;;
73650;SDS011;61944;52.538;6.108;2023-10-13T13:46:17;13.95;;;6.40;;
73650;SDS011;61944;52.538;6.108;2023-10-13T13:48:50;19.35;;;7.22;;
73650;SDS011;61944;52.538;6.108;2023-10-13T13:51:16;18.15;;;6.93;;
73650;SDS011;61944;52.538;6.108;2023-10-13T13:53:51;12.27;;;6.93;;
73650;SDS011;61944;52.538;6.108;2023-10-13T13:56:17;15.32;;;7.38;;
73650;SDS011;61944;52.538;6.108;2023-10-13T13:58:47;19.95;;;6.95;;
73650;SDS011;61944;52.538;6.108;2023-10-13T14:01:17;15.68;;;6.82;;
73650;SDS011;61944;52.538;6.108;2023-10-13T14:03:44;17.38;;;7.78;;
73650;SDS011;61944;52.538;6.108;2023-10-13T14:06:17;14.13;;;7.05;;
73650;SDS011;61944;52.538;6.108;2023-10-13T14:08:48;18.40;;;8.10;;
73650;SDS011;61944;52.538;6.108;2023-10-13T14:11:16;15.32;;;7.00;;
73650;SDS011;61944;52.538;6.108;2023-10-13T14:14:12;14.10;;;7.60;;
73650;SDS011;61944;52.538;6.108;2023-10-13T14:16:45;18.52;;;6.80;;
73650;SDS011;61944;52.538;6.108;2023-10-13T14:19:13;20.73;;;9.18;;
73650;SDS011;61944;52.538;6.108;2023-10-13T14:21:54;13.23;;;7.10;;
73650;SDS011;61944;52.538;6.108;2023-10-13T14:24:23;18.83;;;7.80;;
73650;SDS011;61944;52.538;6.108;2023-10-13T14:26:53;21.27;;;9.32;;
73650;SDS011;61944;52.538;6.108;2023-10-13T14:29:19;19.38;;;8.65;;
73650;SDS011;61944;52.538;6.108;2023-10-13T14:31:45;13.90;;;7.72;;
73650;SDS011;61944;52.538;6.108;2023-10-13T14:34:13;14.02;;;6.53;;
73650;SDS011;61944;52.538;6.108;2023-10-13T14:36:39;17.65;;;8.30;;
73650;SDS011;61944;52.538;6.108;2023-10-13T14:39:05;16.58;;;7.50;;
73650;SDS011;61944;52.538;6.108;2023-10-13T14:41:34;14.68;;;7.20;;
73650;SDS011;61944;52.538;6.108;2023-10-13T14:44:00;19.00;;;7.90;;
73650;SDS011;61944;52.538;6.108;2023-10-13T14:46:30;22.63;;;9.15;;
73650;SDS011;61944;52.538;6.108;2023-10-13T14:48:55;14.52;;;8.40;;
73650;SDS011;61944;52.538;6.108;2023-10-13T14:51:20;17.67;;;8.25;;
73650;SDS011;61944;52.538;6.108;2023-10-13T14:53:46;19.67;;;8.68;;
73650;SDS011;61944;52.538;6.108;2023-10-13T14:56:12;21.35;;;9.95;;
73650;SDS011;61944;52.538;6.108;2023-10-13T14:58:40;13.50;;;7.90;;
73650;SDS011;61944;52.538;6.108;2023-10-13T15:01:15;20.98;;;9.38;;
73650;SDS011;61944;52.538;6.108;2023-10-13T15:03:47;21.35;;;7.90;;
73650;SDS011;61944;52.538;6.108;2023-10-13T15:06:20;21.37;;;7.93;;
73650;SDS011;61944;52.538;6.108;2023-10-13T15:08:51;16.25;;;8.40;;
73650;SDS011;61944;52.538;6.108;2023-10-13T15:11:19;16.50;;;8.15;;
73650;SDS011;61944;52.538;6.108;2023-10-13T15:13:46;20.35;;;7.75;;
73650;SDS011;61944;52.538;6.108;2023-10-13T15:16:16;23.98;;;9.18;;
73650;SDS011;61944;52.538;6.108;2023-10-13T15:18:45;16.02;;;7.57;;
73650;SDS011;61944;52.538;6.108;2023-10-13T15:21:32;17.27;;;8.35;;
73650;SDS011;61944;52.538;6.108;2023-10-13T15:24:00;20.58;;;8.77;;
73650;SDS011;61944;52.538;6.108;2023-10-13T15:26:38;15.40;;;8.52;;
73650;SDS011;61944;52.538;6.108;2023-10-13T15:29:10;18.17;;;8.20;;
73650;SDS011;61944;52.538;6.108;2023-10-13T15:31:37;15.02;;;7.22;;
73650;SDS011;61944;52.538;6.108;2023-10-13T15:34:08;14.30;;;6.65;;
73650;SDS011;61944;52.538;6.108;2023-10-13T15:36:40;14.05;;;7.25;;
73650;SDS011;61944;52.538;6.108;2023-10-13T15:39:07;11.93;;;5.90;;
73650;SDS011;61944;52.538;6.108;2023-10-13T15:41:35;13.40;;;7.35;;
73650;SDS011;61944;52.538;6.108;2023-10-13T15:44:10;8.53;;;5.13;;
73650;SDS011;61944;52.538;6.108;2023-10-13T15:46:38;11.77;;;6.28;;
73650;SDS011;61944;52.538;6.108;2023-10-13T15:49:03;11.23;;;5.88;;
73650;SDS011;61944;52.538;6.108;2023-10-13T15:51:31;10.40;;;5.47;;
73650;SDS011;61944;52.538;6.108;2023-10-13T15:53:59;13.00;;;6.93;;
73650;SDS011;61944;52.538;6.108;2023-10-13T15:56:25;13.40;;;6.38;;
73650;SDS011;61944;52.538;6.108;2023-10-13T15:58:50;14.95;;;7.13;;
73650;SDS011;61944;52.538;6.108;2023-10-13T16:01:16;20.75;;;8.25;;
73650;SDS011;61944;52.538;6.108;2023-10-13T16:03:42;16.42;;;10.50;;
73650;SDS011;61944;52.538;6.108;2023-10-13T16:06:12;24.38;;;11.27;;
73650;SDS011;61944;52.538;6.108;2023-10-13T16:08:38;18.05;;;8.35;;
73650;SDS011;61944;52.538;6.108;2023-10-13T16:11:07;17.33;;;8.40;;
73650;SDS011;61944;52.538;6.108;2023-10-13T16:13:45;17.17;;;8.77;;
73650;SDS011;61944;52.538;6.108;2023-10-13T16:16:18;20.35;;;10.38;;
73650;SDS011;61944;52.538;6.108;2023-10-13T16:18:47;24.73;;;11.00;;
73650;SDS011;61944;52.538;6.108;2023-10-13T16:21:13;20.88;;;9.27;;
73650;SDS011;61944;52.538;6.108;2023-10-13T16:23:40;24.92;;;8.13;;
73650;SDS011;61944;52.538;6.108;2023-10-13T16:26:11;16.17;;;8.57;;
73650;SDS011;61944;52.538;6.108;2023-10-13T16:28:37;19.85;;;8.35;;
73650;SDS011;61944;52.538;6.108;2023-10-13T16:31:04;15.35;;;8.82;;
73650;SDS011;61944;52.538;6.108;2023-10-13T16:33:30;13.60;;;7.22;;
73650;SDS011;61944;52.538;6.108;2023-10-13T16:36:02;14.07;;;7.03;;
73650;SDS011;61944;52.538;6.108;2023-10-13T16:38:31;15.25;;;8.32;;
73650;SDS011;61944;52.538;6.108;2023-10-13T16:40:56;15.75;;;8.77;;
73650;SDS011;61944;52.538;6.108;2023-10-13T16:43:22;12.75;;;6.60;;
73650;SDS011;61944;52.538;6.108;2023-10-13T16:45:48;13.63;;;5.50;;
73650;SDS011;61944;52.538;6.108;2023-10-13T16:48:14;14.27;;;7.15;;
73650;SDS011;61944;52.538;6.108;2023-10-13T16:50:41;10.40;;;6.55;;
73650;SDS011;61944;52.538;6.108;2023-10-13T16:53:10;11.40;;;7.28;;
73650;SDS011;61944;52.538;6.108;2023-10-13T16:55:38;9.65;;;5.45;;
73650;SDS011;61944;52.538;6.108;2023-10-13T16:58:07;16.02;;;6.50;;
73650;SDS011;61944;52.538;6.108;2023-10-13T17:00:35;18.85;;;7.65;;